createdAt,value
2018-08-30T00:01:57.042Z,8.77
2018-08-30T00:04:26.295Z,9.37
2018-08-30T00:06:55.350Z,10.77
2018-08-30T00:09:24.546Z,10.60
2018-08-30T00:11:54.091Z,10.07
2018-08-30T00:14:23.187Z,9.17
2018-08-30T00:16:52.436Z,12.97
2018-08-30T00:19:21.519Z,9.17
2018-08-30T00:21:50.506Z,7.80
2018-08-30T00:24:20.440Z,11.57
2018-08-30T00:26:49.549Z,9.23
2018-08-30T00:29:18.805Z,10.07
2018-08-30T00:31:48.072Z,12.80
2018-08-30T00:34:17.275Z,10.97
2018-08-30T00:36:46.199Z,9.10
2018-08-30T00:39:15.319Z,9.80
2018-08-30T00:41:44.312Z,11.00
2018-08-30T00:44:13.873Z,8.73
2018-08-30T00:46:42.934Z,14.17
2018-08-30T00:49:12.259Z,8.83
2018-08-30T00:51:41.744Z,9.87
2018-08-30T00:54:11.090Z,14.23
2018-08-30T00:56:40.134Z,9.53
2018-08-30T00:59:09.328Z,7.80
2018-08-30T01:01:38.803Z,8.37
2018-08-30T01:04:07.922Z,9.00
2018-08-30T01:06:37.334Z,12.47
2018-08-30T01:09:10.112Z,8.60
2018-08-30T01:11:42.859Z,13.70
2018-08-30T01:14:12.083Z,8.77
2018-08-30T01:16:41.087Z,11.20
2018-08-30T01:19:10.222Z,8.60
2018-08-30T01:21:39.182Z,8.30
2018-08-30T01:24:08.513Z,8.33
2018-08-30T01:26:37.721Z,8.23
2018-08-30T01:29:07.246Z,9.13
2018-08-30T01:31:36.530Z,10.70
2018-08-30T01:34:05.489Z,12.60
2018-08-30T01:36:34.652Z,12.30
2018-08-30T01:39:04.568Z,10.37
2018-08-30T01:41:34.413Z,11.53
2018-08-30T01:44:03.573Z,11.47
2018-08-30T01:46:32.812Z,9.53
2018-08-30T01:49:01.970Z,10.20
2018-08-30T01:51:30.991Z,11.97
2018-08-30T01:53:59.893Z,9.77
2018-08-30T01:56:29.633Z,12.67
2018-08-30T01:58:58.695Z,14.33
2018-08-30T02:01:27.981Z,11.00
2018-08-30T02:03:57.258Z,11.07
2018-08-30T02:06:26.363Z,16.47
2018-08-30T02:08:55.492Z,12.73
2018-08-30T02:11:24.896Z,10.40
2018-08-30T02:13:54.232Z,13.87
2018-08-30T02:16:23.602Z,10.77
2018-08-30T02:18:52.931Z,12.40
2018-08-30T02:21:21.907Z,10.13
2018-08-30T02:23:50.903Z,11.73
2018-08-30T02:26:19.889Z,10.23
2018-08-30T02:28:49.629Z,13.80
2018-08-30T02:31:20.560Z,9.10
2018-08-30T02:33:49.587Z,12.57
2018-08-30T02:36:18.726Z,10.63
2018-08-30T02:38:47.926Z,9.63
2018-08-30T02:41:17.001Z,13.40
2018-08-30T02:43:46.148Z,10.27
2018-08-30T02:46:15.515Z,14.57
2018-08-30T02:48:44.834Z,14.53
2018-08-30T02:51:13.840Z,14.70
2018-08-30T02:53:43.353Z,14.20
2018-08-30T02:56:12.313Z,8.33
2018-08-30T02:58:41.483Z,11.90
2018-08-30T03:01:10.406Z,10.93
2018-08-30T03:03:39.777Z,14.40
2018-08-30T03:06:09.040Z,9.20
2018-08-30T03:08:38.088Z,12.03
2018-08-30T03:11:07.454Z,11.80
2018-08-30T03:13:36.502Z,8.20
2018-08-30T03:16:05.646Z,13.73
2018-08-30T03:18:34.765Z,12.03
2018-08-30T03:21:03.982Z,10.40
2018-08-30T03:23:33.239Z,6.93
2018-08-30T03:26:03.157Z,6.77
2018-08-30T03:28:32.315Z,10.03
2018-08-30T03:31:01.506Z,8.13
2018-08-30T03:33:30.836Z,11.80
2018-08-30T03:36:00.610Z,6.37
2018-08-30T03:38:29.680Z,8.63
2018-08-30T03:40:58.760Z,7.13
2018-08-30T03:43:28.024Z,7.10
2018-08-30T03:45:56.988Z,5.90
2018-08-30T03:48:26.263Z,6.30
2018-08-30T03:50:55.479Z,5.80
2018-08-30T03:53:25.211Z,8.63
2018-08-30T03:55:54.288Z,6.27
2018-08-30T03:58:23.949Z,6.17
2018-08-30T04:00:53.156Z,7.70
2018-08-30T04:03:22.354Z,5.60
2018-08-30T04:05:51.462Z,4.03
2018-08-30T04:08:20.589Z,4.70
2018-08-30T04:10:49.607Z,6.53
2018-08-30T04:13:18.710Z,4.43
2018-08-30T04:15:47.886Z,4.73
2018-08-30T04:18:17.067Z,5.77
2018-08-30T04:20:46.323Z,4.97
2018-08-30T04:23:15.606Z,6.23
2018-08-30T04:25:44.725Z,4.00
2018-08-30T04:28:13.723Z,4.10
2018-08-30T04:30:42.695Z,7.83
2018-08-30T04:33:12.158Z,5.30
2018-08-30T04:35:41.235Z,4.57
2018-08-30T04:38:10.489Z,7.87
2018-08-30T04:40:39.515Z,5.33
2018-08-30T04:43:08.674Z,5.00
2018-08-30T04:45:38.341Z,5.03
2018-08-30T04:48:07.584Z,3.73
2018-08-30T04:50:36.805Z,6.47
2018-08-30T04:53:06.491Z,5.40
2018-08-30T04:55:36.216Z,5.90
2018-08-30T04:58:05.407Z,27.97
2018-08-30T05:00:34.384Z,5.27
2018-08-30T05:03:04.311Z,4.23
2018-08-30T05:05:33.450Z,5.03
2018-08-30T05:08:02.507Z,3.80
2018-08-30T05:10:31.646Z,8.30
2018-08-30T05:13:00.981Z,3.90
2018-08-30T05:15:30.137Z,3.63
2018-08-30T05:17:59.900Z,2.90
2018-08-30T05:20:29.459Z,3.00
2018-08-30T05:22:58.683Z,5.90
2018-08-30T05:25:28.186Z,4.60
2018-08-30T05:27:57.285Z,3.20
2018-08-30T05:30:32.857Z,4.30
2018-08-30T05:33:02.511Z,3.23
2018-08-30T05:35:31.536Z,3.93
2018-08-30T05:38:00.731Z,1.90
2018-08-30T05:40:29.966Z,6.93
2018-08-30T05:42:59.134Z,5.93
2018-08-30T05:45:28.377Z,4.37
2018-08-30T05:47:57.696Z,6.03
2018-08-30T05:50:26.824Z,5.00
2018-08-30T05:52:55.866Z,6.23
2018-08-30T05:55:25.585Z,2.90
2018-08-30T05:57:55.299Z,3.03
2018-08-30T06:00:25.129Z,2.30
2018-08-30T06:02:55.189Z,5.70
2018-08-30T06:05:24.901Z,5.80
2018-08-30T06:07:54.437Z,4.47
2018-08-30T06:10:23.737Z,5.87
2018-08-30T06:12:52.961Z,4.33
2018-08-30T06:15:22.168Z,3.03
2018-08-30T06:17:51.514Z,2.90
2018-08-30T06:20:20.637Z,8.23
2018-08-30T06:22:49.733Z,3.27
2018-08-30T06:25:19.238Z,5.83
2018-08-30T06:27:48.413Z,4.53
2018-08-30T06:30:17.686Z,3.40
2018-08-30T06:32:46.753Z,2.50
2018-08-30T06:35:16.628Z,3.10
2018-08-30T06:37:45.697Z,2.83
2018-08-30T06:40:15.613Z,6.10
2018-08-30T06:42:45.043Z,4.53
2018-08-30T06:45:14.515Z,4.73
2018-08-30T06:47:43.674Z,6.87
2018-08-30T06:50:12.899Z,3.60
2018-08-30T06:52:42.122Z,4.40
2018-08-30T06:55:11.360Z,3.50
2018-08-30T06:57:40.906Z,3.67
2018-08-30T07:00:10.369Z,3.53
2018-08-30T07:02:39.576Z,3.00
2018-08-30T07:05:09.133Z,3.90
2018-08-30T07:07:38.747Z,4.30
2018-08-30T07:10:07.686Z,3.63
2018-08-30T07:12:36.812Z,3.90
2018-08-30T07:15:06.599Z,3.93
2018-08-30T07:17:36.280Z,2.83
2018-08-30T07:20:05.760Z,3.03
2018-08-30T07:22:34.890Z,3.57
2018-08-30T07:25:04.433Z,2.47
2018-08-30T07:27:33.361Z,5.13
2018-08-30T07:30:02.504Z,2.37
2018-08-30T07:32:32.066Z,2.60
2018-08-30T07:35:01.322Z,5.77
2018-08-30T07:37:30.400Z,3.50
2018-08-30T07:39:59.500Z,2.63
2018-08-30T07:42:28.875Z,2.60
2018-08-30T07:44:58.198Z,3.97
2018-08-30T07:47:27.363Z,3.80
2018-08-30T07:49:56.455Z,6.60
2018-08-30T07:52:26.431Z,2.37
2018-08-30T07:54:55.398Z,2.67
2018-08-30T07:57:24.449Z,3.43
2018-08-30T07:59:53.653Z,4.33
2018-08-30T08:02:23.135Z,3.50
2018-08-30T08:04:52.442Z,2.90
2018-08-30T08:07:21.718Z,4.43
2018-08-30T08:09:51.097Z,2.60
2018-08-30T08:12:20.299Z,2.67
2018-08-30T08:14:49.559Z,5.43
2018-08-30T08:17:24.852Z,2.50
2018-08-30T08:19:54.413Z,4.03
2018-08-30T08:22:23.646Z,2.13
2018-08-30T08:24:53.104Z,8.73
2018-08-30T08:27:22.652Z,2.50
2018-08-30T08:29:52.039Z,7.07
2018-08-30T08:32:21.109Z,4.20
2018-08-30T08:34:50.318Z,14.03
2018-08-30T08:37:19.462Z,2.67
2018-08-30T08:39:48.700Z,2.83
2018-08-30T08:42:17.850Z,9.93
2018-08-30T08:44:47.123Z,4.20
2018-08-30T08:47:16.556Z,2.87
2018-08-30T08:49:45.897Z,10.43
2018-08-30T08:52:14.884Z,3.33
2018-08-30T08:54:43.909Z,4.63
2018-08-30T08:57:16.509Z,1.90
2018-08-30T08:59:46.644Z,2.20
2018-08-30T09:02:15.723Z,6.50
2018-08-30T09:04:45.062Z,6.53
2018-08-30T09:07:15.502Z,3.40
2018-08-30T09:09:44.978Z,4.40
2018-08-30T09:12:14.169Z,5.13
2018-08-30T09:14:43.203Z,7.20
2018-08-30T09:17:12.530Z,11.30
2018-08-30T09:19:41.668Z,5.67
2018-08-30T09:22:10.718Z,5.37
2018-08-30T09:24:39.856Z,2.33
2018-08-30T09:27:09.760Z,3.00
2018-08-30T09:29:38.914Z,2.50
2018-08-30T09:32:08.177Z,2.07
2018-08-30T09:34:37.894Z,2.93
2018-08-30T09:37:06.998Z,2.27
2018-08-30T09:39:35.982Z,2.47
2018-08-30T09:42:05.187Z,2.43
2018-08-30T09:44:34.132Z,2.00
2018-08-30T09:47:03.988Z,1.90
2018-08-30T09:49:33.188Z,5.57
2018-08-30T09:52:03.450Z,2.30
2018-08-30T09:54:32.519Z,3.90
2018-08-30T09:57:01.996Z,2.80
2018-08-30T09:59:32.517Z,1.70
2018-08-30T10:02:06.487Z,1.77
2018-08-30T10:04:35.467Z,3.00
2018-08-30T10:07:04.684Z,1.30
2018-08-30T10:09:33.858Z,2.50
2018-08-30T10:12:03.338Z,1.53
2018-08-30T10:14:32.491Z,2.30
2018-08-30T10:17:02.544Z,1.50
2018-08-30T10:19:31.569Z,4.30
2018-08-30T10:22:00.830Z,1.50
2018-08-30T10:24:29.974Z,1.40
2018-08-30T10:26:59.476Z,4.13
2018-08-30T10:29:28.318Z,1.40
2018-08-30T10:31:57.471Z,1.67
2018-08-30T10:34:26.871Z,2.03
2018-08-30T10:36:56.022Z,3.93
2018-08-30T10:39:25.371Z,1.60
2018-08-30T10:41:54.594Z,5.50
2018-08-30T10:44:23.701Z,6.97
2018-08-30T10:46:52.837Z,3.90
2018-08-30T10:49:22.449Z,2.10
2018-08-30T10:51:51.653Z,2.10
2018-08-30T10:54:21.146Z,1.87
2018-08-30T10:56:51.095Z,4.37
2018-08-30T10:59:20.345Z,4.90
2018-08-30T11:01:49.664Z,4.10
2018-08-30T11:04:19.429Z,2.10
2018-08-30T11:06:48.875Z,1.63
2018-08-30T11:09:18.075Z,1.93
2018-08-30T11:11:47.196Z,3.73
2018-08-30T11:14:16.612Z,2.60
2018-08-30T11:16:45.989Z,2.30
2018-08-30T11:19:15.178Z,3.10
2018-08-30T11:21:44.792Z,2.97
2018-08-30T11:24:14.340Z,2.27
2018-08-30T11:26:43.818Z,1.90
2018-08-30T11:29:13.134Z,4.27
2018-08-30T11:31:42.283Z,2.77
2018-08-30T11:34:11.927Z,2.43
2018-08-30T11:36:41.087Z,2.70
2018-08-30T11:39:10.729Z,6.03
2018-08-30T11:41:39.875Z,3.27
2018-08-30T11:44:09.991Z,1.60
2018-08-30T11:46:39.346Z,3.13
2018-08-30T11:49:09.220Z,3.17
2018-08-30T11:51:38.851Z,5.87
2018-08-30T11:54:08.304Z,4.60
2018-08-30T11:56:37.514Z,3.77
2018-08-30T11:59:06.775Z,3.67
2018-08-30T12:01:35.978Z,3.70
2018-08-30T12:04:05.734Z,2.63
2018-08-30T12:06:34.960Z,1.87
2018-08-30T12:09:05.971Z,1.60
2018-08-30T12:11:36.772Z,2.60
2018-08-30T12:14:05.927Z,2.27
2018-08-30T12:16:35.172Z,1.80
2018-08-30T12:19:04.698Z,1.97
2018-08-30T12:21:34.043Z,2.40
2018-08-30T12:24:03.278Z,1.70
2018-08-30T12:26:32.800Z,2.80
2018-08-30T12:29:02.113Z,1.87
2018-08-30T12:31:31.368Z,1.80
2018-08-30T12:34:00.707Z,1.73
2018-08-30T12:36:30.234Z,4.40
2018-08-30T12:38:59.559Z,4.17
2018-08-30T12:41:28.709Z,3.27
2018-08-30T12:43:58.446Z,1.87
2018-08-30T12:46:27.922Z,3.10
2018-08-30T12:48:57.317Z,1.60
2018-08-30T12:51:26.565Z,4.97
2018-08-30T12:53:55.631Z,1.80
2018-08-30T12:56:25.062Z,2.20
2018-08-30T12:58:59.420Z,5.10
2018-08-30T13:01:28.822Z,4.30
2018-08-30T13:03:58.365Z,2.60
2018-08-30T13:06:28.263Z,3.00
2018-08-30T13:08:58.108Z,1.87
2018-08-30T13:11:27.794Z,2.50
2018-08-30T13:13:57.255Z,5.70
2018-08-30T13:16:27.080Z,2.20
2018-08-30T13:18:56.709Z,4.00
2018-08-30T13:21:26.030Z,4.93
2018-08-30T13:23:55.513Z,2.17
2018-08-30T13:26:24.908Z,2.00
2018-08-30T13:28:54.195Z,5.43
2018-08-30T13:31:24.298Z,4.57
2018-08-30T13:33:53.977Z,2.90
2018-08-30T13:36:23.386Z,2.03
2018-08-30T13:38:52.408Z,1.97
2018-08-30T13:41:21.875Z,3.23
2018-08-30T13:43:51.048Z,1.60
2018-08-30T13:46:20.289Z,4.10
2018-08-30T13:48:49.809Z,1.83
2018-08-30T13:51:19.102Z,4.30
2018-08-30T13:53:48.262Z,2.33
2018-08-30T13:56:17.960Z,3.00
2018-08-30T13:58:47.188Z,2.10
2018-08-30T14:01:16.762Z,2.20
2018-08-30T14:03:45.715Z,2.40
2018-08-30T14:06:15.034Z,2.27
2018-08-30T14:08:44.575Z,2.90
2018-08-30T14:11:14.233Z,3.93
2018-08-30T14:13:43.514Z,2.83
2018-08-30T14:16:13.267Z,2.97
2018-08-30T14:18:42.289Z,2.53
2018-08-30T14:21:12.183Z,3.43
2018-08-30T14:23:41.412Z,4.80
2018-08-30T14:26:10.768Z,9.30
2018-08-30T14:28:40.175Z,4.37
2018-08-30T14:31:15.818Z,6.27
2018-08-30T14:33:45.336Z,4.30
2018-08-30T14:36:14.311Z,5.03
2018-08-30T14:38:43.592Z,4.93
2018-08-30T14:41:13.653Z,3.73
2018-08-30T14:43:43.491Z,3.03
2018-08-30T14:46:12.789Z,5.03
2018-08-30T14:48:42.317Z,3.90
2018-08-30T14:51:11.383Z,8.23
2018-08-30T14:53:40.626Z,4.63
2018-08-30T14:56:09.719Z,3.20
2018-08-30T14:58:38.950Z,12.63
2018-08-30T15:01:08.793Z,3.50
2018-08-30T15:03:37.859Z,3.43
2018-08-30T15:06:07.213Z,5.60
2018-08-30T15:08:36.307Z,6.07
2018-08-30T15:11:05.507Z,6.27
2018-08-30T15:13:34.641Z,6.83
2018-08-30T15:16:03.630Z,4.93
2018-08-30T15:18:32.747Z,3.63
2018-08-30T15:21:03.327Z,3.57
2018-08-30T15:23:32.354Z,7.30
2018-08-30T15:26:01.743Z,6.70
2018-08-30T15:28:32.166Z,4.13
2018-08-30T15:31:01.307Z,3.80
2018-08-30T15:33:30.420Z,5.53
2018-08-30T15:35:59.707Z,4.57
2018-08-30T15:38:29.099Z,5.73
2018-08-30T15:40:58.668Z,10.30
2018-08-30T15:43:27.655Z,12.43
2018-08-30T15:45:57.521Z,5.47
2018-08-30T15:48:26.941Z,4.80
2018-08-30T15:50:56.145Z,8.93
2018-08-30T15:53:25.378Z,4.10
2018-08-30T15:55:54.528Z,3.93
2018-08-30T15:58:24.024Z,4.43
2018-08-30T16:00:53.471Z,5.33
2018-08-30T16:03:22.842Z,3.90
2018-08-30T16:05:52.133Z,4.90
2018-08-30T16:08:21.362Z,6.40
2018-08-30T16:10:50.442Z,6.57
2018-08-30T16:13:19.751Z,5.53
2018-08-30T16:15:48.831Z,6.73
2018-08-30T16:18:18.287Z,13.40
2018-08-30T16:20:47.438Z,5.70
2018-08-30T16:23:26.020Z,6.27
2018-08-30T16:25:55.910Z,4.30
2018-08-30T16:28:25.758Z,6.20
2018-08-30T16:30:55.341Z,4.30
2018-08-30T16:33:24.756Z,6.57
2018-08-30T16:35:53.861Z,8.67
2018-08-30T16:38:22.904Z,5.47
2018-08-30T16:40:52.084Z,5.47
2018-08-30T16:43:21.284Z,4.53
2018-08-30T16:45:51.209Z,5.07
2018-08-30T16:48:20.981Z,4.50
2018-08-30T16:50:50.219Z,5.10
2018-08-30T16:53:19.450Z,5.80
2018-08-30T16:55:48.472Z,5.10
2018-08-30T16:58:17.746Z,6.90
2018-08-30T17:00:46.959Z,5.37
2018-08-30T17:03:16.203Z,6.50
2018-08-30T17:05:45.378Z,7.87
2018-08-30T17:08:14.781Z,8.83
2018-08-30T17:10:44.754Z,7.13
2018-08-30T17:13:14.046Z,6.23
2018-08-30T17:15:43.090Z,9.80
2018-08-30T17:18:12.229Z,8.70
2018-08-30T17:20:42.945Z,8.17
2018-08-30T17:23:12.395Z,6.93
2018-08-30T17:25:42.399Z,7.00
2018-08-30T17:28:11.740Z,8.23
2018-08-30T17:30:41.119Z,8.23
2018-08-30T17:33:10.452Z,8.50
2018-08-30T17:35:39.723Z,7.70
2018-08-30T17:38:09.027Z,8.70
2018-08-30T17:40:38.044Z,8.63
2018-08-30T17:43:07.099Z,8.20
2018-08-30T17:45:36.282Z,8.43
2018-08-30T17:48:05.677Z,7.93
2018-08-30T17:50:35.003Z,8.00
2018-08-30T17:53:04.579Z,7.90
2018-08-30T17:55:33.820Z,10.40
2018-08-30T17:58:03.284Z,8.77
2018-08-30T18:00:32.635Z,7.70
2018-08-30T18:03:01.764Z,8.23
2018-08-30T18:05:31.566Z,8.00
2018-08-30T18:08:00.796Z,7.40
2018-08-30T18:10:30.022Z,9.37
2018-08-30T18:12:59.223Z,8.47
2018-08-30T18:15:28.422Z,8.40
2018-08-30T18:17:57.676Z,9.90
2018-08-30T18:20:27.096Z,11.30
2018-08-30T18:22:56.385Z,11.30
2018-08-30T18:25:25.379Z,7.20
2018-08-30T18:27:54.386Z,10.73
2018-08-30T18:30:23.825Z,7.07
2018-08-30T18:32:52.982Z,7.83
2018-08-30T18:35:22.399Z,9.83
2018-08-30T18:37:51.878Z,7.77
2018-08-30T18:40:21.010Z,15.10
2018-08-30T18:42:50.395Z,7.47
2018-08-30T18:45:19.649Z,13.20
2018-08-30T18:47:48.892Z,8.33
2018-08-30T18:50:18.700Z,9.67
2018-08-30T18:52:47.785Z,10.47
2018-08-30T18:55:17.266Z,6.90
2018-08-30T18:57:46.627Z,9.30
2018-08-30T19:00:15.799Z,7.93
2018-08-30T19:02:45.794Z,8.80
2018-08-30T19:05:15.905Z,8.37
2018-08-30T19:07:45.134Z,7.83
2018-08-30T19:10:14.496Z,7.33
2018-08-30T19:12:44.105Z,11.00
2018-08-30T19:15:18.631Z,7.73
2018-08-30T19:17:52.952Z,8.30
2018-08-30T19:20:22.084Z,8.03
2018-08-30T19:22:51.867Z,7.00
2018-08-30T19:25:29.071Z,8.00
2018-08-30T19:27:58.132Z,6.63
2018-08-30T19:30:28.842Z,10.13
2018-08-30T19:32:58.768Z,9.77
2018-08-30T19:35:33.171Z,6.20
2018-08-30T19:38:02.490Z,8.33
2018-08-30T19:40:36.749Z,7.10
2018-08-30T19:43:06.480Z,6.90
2018-08-30T19:45:35.687Z,8.60
2018-08-30T19:48:05.555Z,8.93
2018-08-30T19:50:34.589Z,10.40
2018-08-30T19:53:03.601Z,7.30
2018-08-30T19:55:32.665Z,6.63
2018-08-30T19:58:01.754Z,7.33
2018-08-30T20:00:30.903Z,8.43
2018-08-30T20:03:00.161Z,10.40
2018-08-30T20:05:29.253Z,8.80
2018-08-30T20:07:58.567Z,6.37
2018-08-30T20:10:27.550Z,6.17
2018-08-30T20:13:03.002Z,6.97
2018-08-30T20:15:32.324Z,6.37
2018-08-30T20:18:01.303Z,8.60
2018-08-30T20:20:31.275Z,6.23
2018-08-30T20:23:00.594Z,6.77
2018-08-30T20:25:29.581Z,8.00
2018-08-30T20:28:02.581Z,6.70
2018-08-30T20:30:32.088Z,7.70
2018-08-30T20:33:01.687Z,6.93
2018-08-30T20:35:30.799Z,7.30
2018-08-30T20:38:00.008Z,6.33
2018-08-30T20:40:29.146Z,7.03
2018-08-30T20:42:58.322Z,6.10
2018-08-30T20:45:27.280Z,6.80
2018-08-30T20:47:56.374Z,7.20
2018-08-30T20:50:25.509Z,7.70
2018-08-30T20:52:54.568Z,6.93
2018-08-30T20:55:23.706Z,7.30
2018-08-30T20:57:53.035Z,6.73
2018-08-30T21:00:22.320Z,7.80
2018-08-30T21:02:51.596Z,7.67
2018-08-30T21:05:20.563Z,6.93
2018-08-30T21:07:50.133Z,7.13
2018-08-30T21:10:19.275Z,7.83
2018-08-30T21:12:48.618Z,7.27
2018-08-30T21:15:17.787Z,6.97
2018-08-30T21:17:46.967Z,6.60
2018-08-30T21:20:15.996Z,7.23
2018-08-30T21:22:45.381Z,6.90
2018-08-30T21:25:14.474Z,6.13
2018-08-30T21:27:43.822Z,6.50
2018-08-30T21:30:13.925Z,7.10
2018-08-30T21:32:43.279Z,7.90
2018-08-30T21:35:12.704Z,7.00
2018-08-30T21:37:41.758Z,7.80
2018-08-30T21:40:11.046Z,7.67
2018-08-30T21:42:40.801Z,7.53
2018-08-30T21:45:09.940Z,7.17
2018-08-30T21:47:38.972Z,6.90
2018-08-30T21:50:08.263Z,7.63
2018-08-30T21:52:37.305Z,6.50
2018-08-30T21:55:07.138Z,6.00
2018-08-30T21:57:36.468Z,6.97
2018-08-30T22:00:07.094Z,9.67
2018-08-30T22:02:36.568Z,8.13
2018-08-30T22:05:06.186Z,6.67
2018-08-30T22:07:35.534Z,8.70
2018-08-30T22:10:04.964Z,8.60
2018-08-30T22:12:34.163Z,8.03
2018-08-30T22:15:03.508Z,7.40
2018-08-30T22:17:32.656Z,8.10
2018-08-30T22:20:02.154Z,7.53
2018-08-30T22:22:31.113Z,8.33
2018-08-30T22:25:00.070Z,6.23
2018-08-30T22:27:29.630Z,8.10
2018-08-30T22:29:58.870Z,6.67
2018-08-30T22:32:28.134Z,7.30
2018-08-30T22:34:57.158Z,8.60
2018-08-30T22:37:26.352Z,7.93
2018-08-30T22:39:55.798Z,7.93
2018-08-30T22:42:24.967Z,8.13
2018-08-30T22:44:53.950Z,7.13
2018-08-30T22:47:23.235Z,7.37
2018-08-30T22:49:52.415Z,9.10
2018-08-30T22:52:21.768Z,6.40
2018-08-30T22:54:51.994Z,8.17
2018-08-30T22:57:21.670Z,7.13
2018-08-30T22:59:51.259Z,7.60
2018-08-30T23:02:20.771Z,7.63
2018-08-30T23:04:50.108Z,8.60
2018-08-30T23:07:20.738Z,9.53
2018-08-30T23:09:49.894Z,7.00
2018-08-30T23:12:19.283Z,9.43
2018-08-30T23:14:48.409Z,6.40
2018-08-30T23:17:17.963Z,9.03
2018-08-30T23:19:47.240Z,6.50
2018-08-30T23:22:16.432Z,8.07
2018-08-30T23:24:45.769Z,7.93
2018-08-30T23:27:14.989Z,7.33
2018-08-30T23:29:44.251Z,6.37
2018-08-30T23:32:13.209Z,6.70
2018-08-30T23:34:42.672Z,6.63
2018-08-30T23:37:12.011Z,6.63
2018-08-30T23:39:41.517Z,6.90
2018-08-30T23:42:11.024Z,8.07
2018-08-30T23:44:40.819Z,7.27
2018-08-30T23:47:10.093Z,8.00
2018-08-30T23:49:39.308Z,7.00
2018-08-30T23:52:08.647Z,6.40
2018-08-30T23:54:37.962Z,6.30
2018-08-30T23:57:07.057Z,6.30
2018-08-30T23:59:46.970Z,5.73
